sensor_id;sensor_type;location;lat;lon;timestamp;P1;durP1;ratioP1;P2;durP2;ratioP2
54167;SDS011;68429;50.958;3.592;2023-11-21T00:02:13;49.97;;;25.55;;
54167;SDS011;68429;50.958;3.592;2023-11-21T00:04:39;55.00;;;25.35;;
54167;SDS011;68429;50.958;3.592;2023-11-21T00:07:04;45.63;;;22.63;;
54167;SDS011;68429;50.958;3.592;2023-11-21T00:09:31;47.35;;;24.33;;
54167;SDS011;68429;50.958;3.592;2023-11-21T00:11:57;44.65;;;22.77;;
54167;SDS011;68429;50.958;3.592;2023-11-21T00:14:24;57.50;;;25.08;;
54167;SDS011;68429;50.958;3.592;2023-11-21T00:16:50;52.15;;;25.30;;
54167;SDS011;68429;50.958;3.592;2023-11-21T00:19:15;43.08;;;22.48;;
54167;SDS011;68429;50.958;3.592;2023-11-21T00:21:41;47.95;;;22.73;;
54167;SDS011;68429;50.958;3.592;2023-11-21T00:24:09;36.15;;;20.10;;
54167;SDS011;68429;50.958;3.592;2023-11-21T00:26:35;42.90;;;21.27;;
54167;SDS011;68429;50.958;3.592;2023-11-21T00:29:04;41.80;;;21.90;;
54167;SDS011;68429;50.958;3.592;2023-11-21T00:31:33;50.57;;;21.53;;
54167;SDS011;68429;50.958;3.592;2023-11-21T00:34:02;50.47;;;22.07;;
54167;SDS011;68429;50.958;3.592;2023-11-21T00:36:31;48.13;;;22.02;;
54167;SDS011;68429;50.958;3.592;2023-11-21T00:38:57;47.67;;;21.88;;
54167;SDS011;68429;50.958;3.592;2023-11-21T00:41:24;45.45;;;20.98;;
54167;SDS011;68429;50.958;3.592;2023-11-21T00:43:52;48.83;;;21.02;;
54167;SDS011;68429;50.958;3.592;2023-11-21T00:46:18;50.70;;;22.80;;
54167;SDS011;68429;50.958;3.592;2023-11-21T00:48:44;46.25;;;21.35;;
54167;SDS011;68429;50.958;3.592;2023-11-21T00:51:10;48.70;;;21.63;;
54167;SDS011;68429;50.958;3.592;2023-11-21T00:53:35;36.65;;;21.13;;
54167;SDS011;68429;50.958;3.592;2023-11-21T00:56:01;44.53;;;21.63;;
54167;SDS011;68429;50.958;3.592;2023-11-21T00:58:27;46.63;;;23.67;;
54167;SDS011;68429;50.958;3.592;2023-11-21T01:00:53;47.30;;;22.92;;
54167;SDS011;68429;50.958;3.592;2023-11-21T01:03:19;52.15;;;22.23;;
54167;SDS011;68429;50.958;3.592;2023-11-21T01:05:45;41.42;;;21.35;;
54167;SDS011;68429;50.958;3.592;2023-11-21T01:08:11;48.97;;;22.25;;
54167;SDS011;68429;50.958;3.592;2023-11-21T01:10:36;47.97;;;22.67;;
54167;SDS011;68429;50.958;3.592;2023-11-21T01:13:02;48.83;;;21.35;;
54167;SDS011;68429;50.958;3.592;2023-11-21T01:15:32;48.80;;;20.85;;
54167;SDS011;68429;50.958;3.592;2023-11-21T01:17:59;45.80;;;20.08;;
54167;SDS011;68429;50.958;3.592;2023-11-21T01:20:25;40.75;;;20.27;;
54167;SDS011;68429;50.958;3.592;2023-11-21T01:22:51;42.58;;;22.25;;
54167;SDS011;68429;50.958;3.592;2023-11-21T01:25:16;43.72;;;21.90;;
54167;SDS011;68429;50.958;3.592;2023-11-21T01:27:42;40.38;;;20.23;;
54167;SDS011;68429;50.958;3.592;2023-11-21T01:30:08;50.13;;;20.58;;
54167;SDS011;68429;50.958;3.592;2023-11-21T01:32:38;51.05;;;21.98;;
54167;SDS011;68429;50.958;3.592;2023-11-21T01:35:04;46.28;;;21.38;;
54167;SDS011;68429;50.958;3.592;2023-11-21T01:37:34;51.75;;;21.25;;
54167;SDS011;68429;50.958;3.592;2023-11-21T01:40:00;41.95;;;19.85;;
54167;SDS011;68429;50.958;3.592;2023-11-21T01:42:27;45.35;;;20.88;;
54167;SDS011;68429;50.958;3.592;2023-11-21T01:44:54;38.45;;;19.20;;
54167;SDS011;68429;50.958;3.592;2023-11-21T01:47:20;40.97;;;19.30;;
54167;SDS011;68429;50.958;3.592;2023-11-21T01:49:46;47.75;;;20.48;;
54167;SDS011;68429;50.958;3.592;2023-11-21T01:52:13;46.50;;;20.58;;
54167;SDS011;68429;50.958;3.592;2023-11-21T01:54:39;45.60;;;22.25;;
54167;SDS011;68429;50.958;3.592;2023-11-21T01:57:07;52.78;;;22.52;;
54167;SDS011;68429;50.958;3.592;2023-11-21T01:59:37;47.58;;;21.02;;
54167;SDS011;68429;50.958;3.592;2023-11-21T02:02:04;47.97;;;20.77;;
54167;SDS011;68429;50.958;3.592;2023-11-21T02:04:33;49.80;;;21.90;;
54167;SDS011;68429;50.958;3.592;2023-11-21T02:06:59;42.67;;;20.95;;
54167;SDS011;68429;50.958;3.592;2023-11-21T02:09:26;46.45;;;20.83;;
54167;SDS011;68429;50.958;3.592;2023-11-21T02:11:53;48.35;;;20.23;;
54167;SDS011;68429;50.958;3.592;2023-11-21T02:14:23;39.08;;;20.15;;
54167;SDS011;68429;50.958;3.592;2023-11-21T02:16:51;54.97;;;20.98;;
54167;SDS011;68429;50.958;3.592;2023-11-21T02:19:19;43.78;;;19.63;;
54167;SDS011;68429;50.958;3.592;2023-11-21T02:21:48;41.20;;;20.08;;
54167;SDS011;68429;50.958;3.592;2023-11-21T02:24:15;44.80;;;19.33;;
54167;SDS011;68429;50.958;3.592;2023-11-21T02:26:42;44.92;;;20.10;;
54167;SDS011;68429;50.958;3.592;2023-11-21T02:29:08;51.38;;;19.40;;
54167;SDS011;68429;50.958;3.592;2023-11-21T02:31:37;48.22;;;19.38;;
54167;SDS011;68429;50.958;3.592;2023-11-21T02:34:10;46.53;;;18.40;;
54167;SDS011;68429;50.958;3.592;2023-11-21T02:36:38;42.08;;;18.90;;
54167;SDS011;68429;50.958;3.592;2023-11-21T02:39:04;38.95;;;18.90;;
54167;SDS011;68429;50.958;3.592;2023-11-21T02:41:29;46.10;;;19.50;;
54167;SDS011;68429;50.958;3.592;2023-11-21T02:43:55;40.83;;;19.27;;
54167;SDS011;68429;50.958;3.592;2023-11-21T02:46:21;47.33;;;21.15;;
54167;SDS011;68429;50.958;3.592;2023-11-21T02:48:47;41.25;;;18.70;;
54167;SDS011;68429;50.958;3.592;2023-11-21T02:51:12;39.22;;;19.52;;
54167;SDS011;68429;50.958;3.592;2023-11-21T02:53:38;48.55;;;19.27;;
54167;SDS011;68429;50.958;3.592;2023-11-21T02:56:04;48.13;;;19.25;;
54167;SDS011;68429;50.958;3.592;2023-11-21T02:58:30;53.33;;;20.00;;
54167;SDS011;68429;50.958;3.592;2023-11-21T03:00:55;39.65;;;18.95;;
54167;SDS011;68429;50.958;3.592;2023-11-21T03:03:21;52.90;;;20.77;;
54167;SDS011;68429;50.958;3.592;2023-11-21T03:05:50;51.35;;;20.67;;
54167;SDS011;68429;50.958;3.592;2023-11-21T03:08:16;32.83;;;18.85;;
54167;SDS011;68429;50.958;3.592;2023-11-21T03:10:42;44.97;;;19.30;;
54167;SDS011;68429;50.958;3.592;2023-11-21T03:13:07;44.53;;;21.73;;
54167;SDS011;68429;50.958;3.592;2023-11-21T03:15:33;48.50;;;20.48;;
54167;SDS011;68429;50.958;3.592;2023-11-21T03:18:00;37.90;;;18.75;;
54167;SDS011;68429;50.958;3.592;2023-11-21T03:20:25;40.78;;;19.38;;
54167;SDS011;68429;50.958;3.592;2023-11-21T03:22:51;46.08;;;20.48;;
54167;SDS011;68429;50.958;3.592;2023-11-21T03:25:16;41.00;;;20.73;;
54167;SDS011;68429;50.958;3.592;2023-11-21T03:27:42;43.38;;;20.80;;
54167;SDS011;68429;50.958;3.592;2023-11-21T03:30:09;44.85;;;20.33;;
54167;SDS011;68429;50.958;3.592;2023-11-21T03:32:36;41.75;;;19.60;;
54167;SDS011;68429;50.958;3.592;2023-11-21T03:35:01;37.20;;;19.13;;
54167;SDS011;68429;50.958;3.592;2023-11-21T03:37:28;34.58;;;18.23;;
54167;SDS011;68429;50.958;3.592;2023-11-21T03:39:54;47.45;;;20.83;;
54167;SDS011;68429;50.958;3.592;2023-11-21T03:42:21;49.40;;;21.15;;
54167;SDS011;68429;50.958;3.592;2023-11-21T03:44:47;52.60;;;20.15;;
54167;SDS011;68429;50.958;3.592;2023-11-21T03:47:12;47.42;;;20.95;;
54167;SDS011;68429;50.958;3.592;2023-11-21T03:49:38;49.95;;;21.13;;
54167;SDS011;68429;50.958;3.592;2023-11-21T03:52:04;51.00;;;22.13;;
54167;SDS011;68429;50.958;3.592;2023-11-21T03:54:30;45.08;;;21.17;;
54167;SDS011;68429;50.958;3.592;2023-11-21T03:56:56;44.30;;;21.50;;
54167;SDS011;68429;50.958;3.592;2023-11-21T03:59:21;47.22;;;21.90;;
54167;SDS011;68429;50.958;3.592;2023-11-21T04:01:49;49.17;;;22.25;;
54167;SDS011;68429;50.958;3.592;2023-11-21T04:04:15;62.00;;;23.52;;
54167;SDS011;68429;50.958;3.592;2023-11-21T04:06:41;61.38;;;23.45;;
54167;SDS011;68429;50.958;3.592;2023-11-21T04:09:06;60.55;;;22.63;;
54167;SDS011;68429;50.958;3.592;2023-11-21T04:11:32;47.83;;;20.80;;
54167;SDS011;68429;50.958;3.592;2023-11-21T04:13:58;46.40;;;21.83;;
54167;SDS011;68429;50.958;3.592;2023-11-21T04:16:24;47.50;;;22.35;;
54167;SDS011;68429;50.958;3.592;2023-11-21T04:18:50;51.22;;;23.50;;
54167;SDS011;68429;50.958;3.592;2023-11-21T04:21:15;64.07;;;24.77;;
54167;SDS011;68429;50.958;3.592;2023-11-21T04:23:41;39.55;;;20.80;;
54167;SDS011;68429;50.958;3.592;2023-11-21T04:26:07;46.03;;;20.95;;
54167;SDS011;68429;50.958;3.592;2023-11-21T04:28:33;54.60;;;22.63;;
54167;SDS011;68429;50.958;3.592;2023-11-21T04:30:59;51.40;;;21.88;;
54167;SDS011;68429;50.958;3.592;2023-11-21T04:33:25;46.90;;;21.65;;
54167;SDS011;68429;50.958;3.592;2023-11-21T04:35:51;61.55;;;23.42;;
54167;SDS011;68429;50.958;3.592;2023-11-21T04:38:16;61.08;;;24.70;;
54167;SDS011;68429;50.958;3.592;2023-11-21T04:40:42;79.43;;;27.13;;
54167;SDS011;68429;50.958;3.592;2023-11-21T04:43:08;84.97;;;27.98;;
54167;SDS011;68429;50.958;3.592;2023-11-21T04:45:33;61.58;;;25.35;;
54167;SDS011;68429;50.958;3.592;2023-11-21T04:47:59;71.68;;;27.23;;
54167;SDS011;68429;50.958;3.592;2023-11-21T04:50:25;62.38;;;27.63;;
54167;SDS011;68429;50.958;3.592;2023-11-21T04:52:52;72.57;;;28.63;;
54167;SDS011;68429;50.958;3.592;2023-11-21T04:55:18;73.95;;;28.27;;
54167;SDS011;68429;50.958;3.592;2023-11-21T04:57:44;80.10;;;28.73;;
54167;SDS011;68429;50.958;3.592;2023-11-21T05:00:10;73.80;;;29.05;;
54167;SDS011;68429;50.958;3.592;2023-11-21T05:02:37;103.43;;;31.98;;
54167;SDS011;68429;50.958;3.592;2023-11-21T05:05:03;119.85;;;34.13;;
54167;SDS011;68429;50.958;3.592;2023-11-21T05:07:30;87.63;;;29.27;;
54167;SDS011;68429;50.958;3.592;2023-11-21T05:09:57;107.97;;;31.20;;
54167;SDS011;68429;50.958;3.592;2023-11-21T05:12:23;83.13;;;29.25;;
54167;SDS011;68429;50.958;3.592;2023-11-21T05:14:50;97.30;;;31.15;;
54167;SDS011;68429;50.958;3.592;2023-11-21T05:17:16;74.78;;;27.98;;
54167;SDS011;68429;50.958;3.592;2023-11-21T05:19:42;190.52;;;37.63;;
54167;SDS011;68429;50.958;3.592;2023-11-21T05:22:10;160.68;;;34.85;;
54167;SDS011;68429;50.958;3.592;2023-11-21T05:24:37;125.55;;;32.17;;
54167;SDS011;68429;50.958;3.592;2023-11-21T05:27:04;144.85;;;34.53;;
54167;SDS011;68429;50.958;3.592;2023-11-21T05:29:29;116.15;;;32.33;;
54167;SDS011;68429;50.958;3.592;2023-11-21T05:31:56;112.57;;;32.53;;
54167;SDS011;68429;50.958;3.592;2023-11-21T05:34:22;88.75;;;29.40;;
54167;SDS011;68429;50.958;3.592;2023-11-21T05:36:49;108.53;;;34.08;;
54167;SDS011;68429;50.958;3.592;2023-11-21T05:39:15;144.40;;;36.47;;
54167;SDS011;68429;50.958;3.592;2023-11-21T05:41:42;136.27;;;36.40;;
54167;SDS011;68429;50.958;3.592;2023-11-21T05:44:08;116.40;;;35.97;;
54167;SDS011;68429;50.958;3.592;2023-11-21T05:46:34;85.55;;;32.50;;
54167;SDS011;68429;50.958;3.592;2023-11-21T05:49:00;122.97;;;36.03;;
54167;SDS011;68429;50.958;3.592;2023-11-21T05:51:25;113.45;;;35.05;;
54167;SDS011;68429;50.958;3.592;2023-11-21T05:53:51;96.15;;;33.38;;
54167;SDS011;68429;50.958;3.592;2023-11-21T05:56:16;105.55;;;33.88;;
54167;SDS011;68429;50.958;3.592;2023-11-21T05:58:43;86.68;;;31.88;;
54167;SDS011;68429;50.958;3.592;2023-11-21T06:01:08;88.07;;;31.95;;
54167;SDS011;68429;50.958;3.592;2023-11-21T06:03:37;132.18;;;35.20;;
54167;SDS011;68429;50.958;3.592;2023-11-21T06:06:03;127.53;;;35.22;;
54167;SDS011;68429;50.958;3.592;2023-11-21T06:08:30;122.53;;;32.53;;
54167;SDS011;68429;50.958;3.592;2023-11-21T06:10:55;131.98;;;35.42;;
54167;SDS011;68429;50.958;3.592;2023-11-21T06:13:21;138.23;;;35.95;;
54167;SDS011;68429;50.958;3.592;2023-11-21T06:15:49;168.52;;;40.20;;
54167;SDS011;68429;50.958;3.592;2023-11-21T06:18:15;98.63;;;33.45;;
54167;SDS011;68429;50.958;3.592;2023-11-21T06:20:44;86.95;;;30.23;;
54167;SDS011;68429;50.958;3.592;2023-11-21T06:23:10;97.18;;;33.38;;
54167;SDS011;68429;50.958;3.592;2023-11-21T06:25:36;147.43;;;39.63;;
54167;SDS011;68429;50.958;3.592;2023-11-21T06:28:02;124.35;;;37.92;;
54167;SDS011;68429;50.958;3.592;2023-11-21T06:30:28;141.85;;;39.30;;
54167;SDS011;68429;50.958;3.592;2023-11-21T06:32:54;135.30;;;40.33;;
54167;SDS011;68429;50.958;3.592;2023-11-21T06:35:21;132.98;;;40.85;;
54167;SDS011;68429;50.958;3.592;2023-11-21T06:37:47;129.07;;;39.78;;
54167;SDS011;68429;50.958;3.592;2023-11-21T06:40:13;261.52;;;55.72;;
54167;SDS011;68429;50.958;3.592;2023-11-21T06:42:40;195.52;;;51.13;;
54167;SDS011;68429;50.958;3.592;2023-11-21T06:45:06;262.60;;;56.88;;
54167;SDS011;68429;50.958;3.592;2023-11-21T06:47:32;204.73;;;49.35;;
54167;SDS011;68429;50.958;3.592;2023-11-21T06:49:58;203.20;;;48.00;;
54167;SDS011;68429;50.958;3.592;2023-11-21T06:52:25;206.95;;;48.17;;
54167;SDS011;68429;50.958;3.592;2023-11-21T06:54:50;190.02;;;45.28;;
54167;SDS011;68429;50.958;3.592;2023-11-21T06:57:16;156.80;;;45.08;;
54167;SDS011;68429;50.958;3.592;2023-11-21T06:59:42;264.05;;;53.25;;
54167;SDS011;68429;50.958;3.592;2023-11-21T07:02:08;163.70;;;43.45;;
54167;SDS011;68429;50.958;3.592;2023-11-21T07:04:34;140.13;;;43.65;;
54167;SDS011;68429;50.958;3.592;2023-11-21T07:07:01;179.13;;;44.53;;
54167;SDS011;68429;50.958;3.592;2023-11-21T07:09:29;170.93;;;43.30;;
54167;SDS011;68429;50.958;3.592;2023-11-21T07:11:56;194.43;;;44.95;;
54167;SDS011;68429;50.958;3.592;2023-11-21T07:14:21;270.60;;;49.53;;
54167;SDS011;68429;50.958;3.592;2023-11-21T07:16:47;271.67;;;48.78;;
54167;SDS011;68429;50.958;3.592;2023-11-21T07:19:13;202.98;;;42.92;;
54167;SDS011;68429;50.958;3.592;2023-11-21T07:21:39;168.98;;;41.03;;
54167;SDS011;68429;50.958;3.592;2023-11-21T07:24:06;262.73;;;45.50;;
54167;SDS011;68429;50.958;3.592;2023-11-21T07:26:33;141.77;;;36.97;;
54167;SDS011;68429;50.958;3.592;2023-11-21T07:29:00;193.80;;;39.05;;
54167;SDS011;68429;50.958;3.592;2023-11-21T07:31:26;141.05;;;34.88;;
54167;SDS011;68429;50.958;3.592;2023-11-21T07:33:52;216.85;;;38.47;;
54167;SDS011;68429;50.958;3.592;2023-11-21T07:36:18;151.02;;;33.78;;
54167;SDS011;68429;50.958;3.592;2023-11-21T07:41:13;93.10;;;27.08;;
54167;SDS011;68429;50.958;3.592;2023-11-21T07:43:42;77.57;;;25.70;;
54167;SDS011;68429;50.958;3.592;2023-11-21T07:46:09;85.28;;;26.73;;
54167;SDS011;68429;50.958;3.592;2023-11-21T07:48:37;79.75;;;28.17;;
54167;SDS011;68429;50.958;3.592;2023-11-21T07:51:07;85.20;;;27.88;;
54167;SDS011;68429;50.958;3.592;2023-11-21T07:53:33;101.35;;;28.88;;
54167;SDS011;68429;50.958;3.592;2023-11-21T07:56:03;94.15;;;28.10;;
54167;SDS011;68429;50.958;3.592;2023-11-21T07:58:35;110.72;;;31.23;;
54167;SDS011;68429;50.958;3.592;2023-11-21T08:01:02;109.43;;;29.98;;
54167;SDS011;68429;50.958;3.592;2023-11-21T08:03:28;116.45;;;30.25;;
54167;SDS011;68429;50.958;3.592;2023-11-21T08:05:55;105.53;;;28.73;;
54167;SDS011;68429;50.958;3.592;2023-11-21T08:08:21;68.22;;;25.08;;
54167;SDS011;68429;50.958;3.592;2023-11-21T08:10:47;89.65;;;26.05;;
54167;SDS011;68429;50.958;3.592;2023-11-21T08:13:22;84.18;;;25.88;;
54167;SDS011;68429;50.958;3.592;2023-11-21T08:15:49;98.10;;;26.83;;
54167;SDS011;68429;50.958;3.592;2023-11-21T08:18:14;60.45;;;22.52;;
54167;SDS011;68429;50.958;3.592;2023-11-21T08:20:41;86.28;;;25.55;;
54167;SDS011;68429;50.958;3.592;2023-11-21T08:23:07;62.95;;;22.02;;
54167;SDS011;68429;50.958;3.592;2023-11-21T08:25:32;68.63;;;23.08;;
54167;SDS011;68429;50.958;3.592;2023-11-21T08:27:59;63.10;;;21.35;;
54167;SDS011;68429;50.958;3.592;2023-11-21T08:30:26;49.10;;;19.02;;
54167;SDS011;68429;50.958;3.592;2023-11-21T08:32:54;61.55;;;19.63;;
54167;SDS011;68429;50.958;3.592;2023-11-21T08:35:23;48.88;;;19.02;;
54167;SDS011;68429;50.958;3.592;2023-11-21T08:37:52;48.15;;;18.38;;
54167;SDS011;68429;50.958;3.592;2023-11-21T08:40:18;53.43;;;18.83;;
54167;SDS011;68429;50.958;3.592;2023-11-21T08:42:45;52.63;;;19.60;;
54167;SDS011;68429;50.958;3.592;2023-11-21T08:45:11;48.47;;;18.30;;
54167;SDS011;68429;50.958;3.592;2023-11-21T08:47:38;61.83;;;19.95;;
54167;SDS011;68429;50.958;3.592;2023-11-21T08:50:05;45.38;;;16.92;;
54167;SDS011;68429;50.958;3.592;2023-11-21T08:52:32;37.53;;;15.32;;
54167;SDS011;68429;50.958;3.592;2023-11-21T08:54:58;40.45;;;15.55;;
54167;SDS011;68429;50.958;3.592;2023-11-21T08:57:32;29.70;;;13.77;;
54167;SDS011;68429;50.958;3.592;2023-11-21T08:59:59;21.98;;;11.50;;
54167;SDS011;68429;50.958;3.592;2023-11-21T09:02:27;30.85;;;13.02;;
54167;SDS011;68429;50.958;3.592;2023-11-21T09:04:53;18.17;;;10.35;;
54167;SDS011;68429;50.958;3.592;2023-11-21T09:07:19;15.80;;;8.02;;
54167;SDS011;68429;50.958;3.592;2023-11-21T09:09:47;8.13;;;7.28;;
54167;SDS011;68429;50.958;3.592;2023-11-21T09:12:14;6.55;;;5.82;;
54167;SDS011;68429;50.958;3.592;2023-11-21T09:14:40;12.07;;;5.68;;
54167;SDS011;68429;50.958;3.592;2023-11-21T09:17:07;5.93;;;5.13;;
54167;SDS011;68429;50.958;3.592;2023-11-21T09:19:39;7.40;;;5.20;;
54167;SDS011;68429;50.958;3.592;2023-11-21T09:24:31;6.40;;;4.30;;
54167;SDS011;68429;50.958;3.592;2023-11-21T09:26:58;6.13;;;3.83;;
54167;SDS011;68429;50.958;3.592;2023-11-21T09:29:25;10.80;;;3.85;;
54167;SDS011;68429;50.958;3.592;2023-11-21T09:31:51;9.50;;;4.25;;
54167;SDS011;68429;50.958;3.592;2023-11-21T09:34:17;3.97;;;3.28;;
54167;SDS011;68429;50.958;3.592;2023-11-21T09:36:45;5.38;;;3.08;;
54167;SDS011;68429;50.958;3.592;2023-11-21T09:41:43;5.95;;;3.38;;
54167;SDS011;68429;50.958;3.592;2023-11-21T09:44:21;7.45;;;3.00;;
54167;SDS011;68429;50.958;3.592;2023-11-21T09:46:55;3.25;;;2.92;;
54167;SDS011;68429;50.958;3.592;2023-11-21T09:49:24;7.68;;;3.30;;
54167;SDS011;68429;50.958;3.592;2023-11-21T09:51:53;4.80;;;2.95;;
54167;SDS011;68429;50.958;3.592;2023-11-21T09:54:21;8.15;;;2.85;;
54167;SDS011;68429;50.958;3.592;2023-11-21T09:56:47;8.30;;;3.20;;
54167;SDS011;68429;50.958;3.592;2023-11-21T09:59:15;3.53;;;2.75;;
54167;SDS011;68429;50.958;3.592;2023-11-21T10:01:41;8.73;;;3.17;;
54167;SDS011;68429;50.958;3.592;2023-11-21T10:04:07;6.35;;;3.10;;
54167;SDS011;68429;50.958;3.592;2023-11-21T10:06:39;21.13;;;4.90;;
54167;SDS011;68429;50.958;3.592;2023-11-21T10:09:11;18.20;;;4.75;;
54167;SDS011;68429;50.958;3.592;2023-11-21T10:11:42;18.27;;;4.63;;
54167;SDS011;68429;50.958;3.592;2023-11-21T10:14:11;19.35;;;4.68;;
54167;SDS011;68429;50.958;3.592;2023-11-21T10:16:39;21.55;;;6.43;;
54167;SDS011;68429;50.958;3.592;2023-11-21T10:19:06;18.73;;;4.53;;
54167;SDS011;68429;50.958;3.592;2023-11-21T10:21:35;13.52;;;3.95;;
54167;SDS011;68429;50.958;3.592;2023-11-21T10:24:02;11.52;;;3.63;;
54167;SDS011;68429;50.958;3.592;2023-11-21T10:26:28;8.80;;;3.30;;
54167;SDS011;68429;50.958;3.592;2023-11-21T10:29:00;14.77;;;4.10;;
54167;SDS011;68429;50.958;3.592;2023-11-21T10:31:29;12.00;;;3.08;;
54167;SDS011;68429;50.958;3.592;2023-11-21T10:34:17;8.82;;;3.40;;
54167;SDS011;68429;50.958;3.592;2023-11-21T10:36:42;19.67;;;5.50;;
54167;SDS011;68429;50.958;3.592;2023-11-21T10:39:08;20.33;;;4.75;;
54167;SDS011;68429;50.958;3.592;2023-11-21T10:41:35;18.55;;;6.22;;
54167;SDS011;68429;50.958;3.592;2023-11-21T10:44:03;31.63;;;8.07;;
54167;SDS011;68429;50.958;3.592;2023-11-21T10:46:32;12.15;;;4.53;;
54167;SDS011;68429;50.958;3.592;2023-11-21T10:48:58;20.08;;;5.25;;
54167;SDS011;68429;50.958;3.592;2023-11-21T10:51:25;17.25;;;6.20;;
54167;SDS011;68429;50.958;3.592;2023-11-21T10:53:54;17.05;;;4.70;;
54167;SDS011;68429;50.958;3.592;2023-11-21T10:56:19;9.27;;;4.25;;
54167;SDS011;68429;50.958;3.592;2023-11-21T10:58:49;10.65;;;3.83;;
54167;SDS011;68429;50.958;3.592;2023-11-21T11:01:18;14.20;;;4.40;;
54167;SDS011;68429;50.958;3.592;2023-11-21T11:03:46;12.32;;;4.00;;
54167;SDS011;68429;50.958;3.592;2023-11-21T11:06:13;18.15;;;5.53;;
54167;SDS011;68429;50.958;3.592;2023-11-21T11:08:40;24.20;;;5.22;;
54167;SDS011;68429;50.958;3.592;2023-11-21T11:11:06;17.83;;;4.95;;
54167;SDS011;68429;50.958;3.592;2023-11-21T11:13:32;17.50;;;4.22;;
54167;SDS011;68429;50.958;3.592;2023-11-21T11:16:01;18.83;;;4.55;;
54167;SDS011;68429;50.958;3.592;2023-11-21T11:18:37;14.30;;;3.13;;
54167;SDS011;68429;50.958;3.592;2023-11-21T11:21:27;7.22;;;2.88;;
54167;SDS011;68429;50.958;3.592;2023-11-21T11:24:26;7.45;;;2.40;;
54167;SDS011;68429;50.958;3.592;2023-11-21T11:27:20;12.27;;;2.80;;
54167;SDS011;68429;50.958;3.592;2023-11-21T11:30:26;11.32;;;2.70;;
54167;SDS011;68429;50.958;3.592;2023-11-21T11:38:47;9.18;;;2.22;;
54167;SDS011;68429;50.958;3.592;2023-11-21T11:41:26;14.60;;;2.40;;
54167;SDS011;68429;50.958;3.592;2023-11-21T11:44:11;6.93;;;2.20;;
54167;SDS011;68429;50.958;3.592;2023-11-21T11:47:32;13.45;;;2.50;;
54167;SDS011;68429;50.958;3.592;2023-11-21T11:52:48;12.43;;;2.35;;
54167;SDS011;68429;50.958;3.592;2023-11-21T11:55:20;10.55;;;2.72;;
54167;SDS011;68429;50.958;3.592;2023-11-21T11:57:50;7.43;;;2.30;;
54167;SDS011;68429;50.958;3.592;2023-11-21T12:00:35;13.10;;;2.85;;
54167;SDS011;68429;50.958;3.592;2023-11-21T12:03:05;8.98;;;2.08;;
54167;SDS011;68429;50.958;3.592;2023-11-21T12:05:32;10.75;;;2.80;;
54167;SDS011;68429;50.958;3.592;2023-11-21T12:08:06;13.00;;;2.03;;
54167;SDS011;68429;50.958;3.592;2023-11-21T12:10:34;9.95;;;1.95;;
54167;SDS011;68429;50.958;3.592;2023-11-21T12:13:02;7.82;;;1.98;;
54167;SDS011;68429;50.958;3.592;2023-11-21T12:15:35;16.58;;;3.60;;
54167;SDS011;68429;50.958;3.592;2023-11-21T12:18:02;7.72;;;1.58;;
54167;SDS011;68429;50.958;3.592;2023-11-21T12:20:31;12.52;;;2.38;;
54167;SDS011;68429;50.958;3.592;2023-11-21T12:23:03;7.22;;;1.83;;
54167;SDS011;68429;50.958;3.592;2023-11-21T12:25:30;7.32;;;1.90;;
54167;SDS011;68429;50.958;3.592;2023-11-21T12:28:01;7.88;;;2.33;;
54167;SDS011;68429;50.958;3.592;2023-11-21T12:30:28;9.35;;;2.20;;
54167;SDS011;68429;50.958;3.592;2023-11-21T12:33:01;21.63;;;3.20;;
54167;SDS011;68429;50.958;3.592;2023-11-21T12:35:27;7.45;;;2.33;;
54167;SDS011;68429;50.958;3.592;2023-11-21T12:37:55;15.65;;;2.50;;
54167;SDS011;68429;50.958;3.592;2023-11-21T12:40:24;17.45;;;3.50;;
54167;SDS011;68429;50.958;3.592;2023-11-21T12:42:54;13.32;;;2.80;;
54167;SDS011;68429;50.958;3.592;2023-11-21T12:45:27;13.10;;;3.25;;
54167;SDS011;68429;50.958;3.592;2023-11-21T12:48:00;17.27;;;2.83;;
54167;SDS011;68429;50.958;3.592;2023-11-21T12:50:32;5.07;;;1.97;;
54167;SDS011;68429;50.958;3.592;2023-11-21T12:52:59;5.60;;;2.10;;
54167;SDS011;68429;50.958;3.592;2023-11-21T12:55:29;11.13;;;2.80;;
54167;SDS011;68429;50.958;3.592;2023-11-21T12:58:02;7.18;;;2.53;;
54167;SDS011;68429;50.958;3.592;2023-11-21T13:00:47;17.58;;;3.25;;
54167;SDS011;68429;50.958;3.592;2023-11-21T13:03:15;12.98;;;2.85;;
54167;SDS011;68429;50.958;3.592;2023-11-21T13:05:43;13.07;;;2.70;;
54167;SDS011;68429;50.958;3.592;2023-11-21T13:08:10;9.32;;;2.75;;
54167;SDS011;68429;50.958;3.592;2023-11-21T13:10:43;8.52;;;2.38;;
54167;SDS011;68429;50.958;3.592;2023-11-21T13:13:12;9.65;;;2.17;;
54167;SDS011;68429;50.958;3.592;2023-11-21T13:15:55;9.07;;;2.45;;
54167;SDS011;68429;50.958;3.592;2023-11-21T13:18:22;11.70;;;2.75;;
54167;SDS011;68429;50.958;3.592;2023-11-21T13:20:49;2.20;;;1.40;;
54167;SDS011;68429;50.958;3.592;2023-11-21T13:23:15;11.13;;;1.98;;
54167;SDS011;68429;50.958;3.592;2023-11-21T13:25:41;5.78;;;2.00;;
54167;SDS011;68429;50.958;3.592;2023-11-21T13:28:10;13.10;;;2.30;;
54167;SDS011;68429;50.958;3.592;2023-11-21T13:30:36;5.90;;;2.03;;
54167;SDS011;68429;50.958;3.592;2023-11-21T13:33:04;10.52;;;2.38;;
54167;SDS011;68429;50.958;3.592;2023-11-21T13:35:32;8.10;;;1.95;;
54167;SDS011;68429;50.958;3.592;2023-11-21T13:38:13;5.50;;;1.85;;
54167;SDS011;68429;50.958;3.592;2023-11-21T13:40:47;7.25;;;2.08;;
54167;SDS011;68429;50.958;3.592;2023-11-21T13:43:18;5.30;;;2.00;;
54167;SDS011;68429;50.958;3.592;2023-11-21T13:45:47;9.00;;;2.30;;
54167;SDS011;68429;50.958;3.592;2023-11-21T13:48:24;8.70;;;2.22;;
54167;SDS011;68429;50.958;3.592;2023-11-21T13:51:15;5.40;;;1.55;;
54167;SDS011;68429;50.958;3.592;2023-11-21T13:53:45;6.60;;;2.13;;
54167;SDS011;68429;50.958;3.592;2023-11-21T13:56:14;13.38;;;2.25;;
54167;SDS011;68429;50.958;3.592;2023-11-21T13:58:58;5.65;;;1.85;;
54167;SDS011;68429;50.958;3.592;2023-11-21T14:01:30;5.35;;;1.83;;
54167;SDS011;68429;50.958;3.592;2023-11-21T14:04:00;9.93;;;1.85;;
54167;SDS011;68429;50.958;3.592;2023-11-21T14:06:48;7.93;;;2.30;;
54167;SDS011;68429;50.958;3.592;2023-11-21T14:09:23;7.65;;;1.90;;
54167;SDS011;68429;50.958;3.592;2023-11-21T14:11:57;4.85;;;2.05;;
54167;SDS011;68429;50.958;3.592;2023-11-21T14:14:26;5.18;;;1.60;;
54167;SDS011;68429;50.958;3.592;2023-11-21T14:16:53;5.50;;;1.73;;
54167;SDS011;68429;50.958;3.592;2023-11-21T14:19:21;8.52;;;3.17;;
54167;SDS011;68429;50.958;3.592;2023-11-21T14:21:47;19.90;;;4.60;;
54167;SDS011;68429;50.958;3.592;2023-11-21T14:24:15;4.15;;;1.88;;
54167;SDS011;68429;50.958;3.592;2023-11-21T14:26:45;4.53;;;2.03;;
54167;SDS011;68429;50.958;3.592;2023-11-21T14:29:12;3.10;;;1.70;;
54167;SDS011;68429;50.958;3.592;2023-11-21T14:31:39;6.18;;;1.60;;
54167;SDS011;68429;50.958;3.592;2023-11-21T14:34:05;3.65;;;2.03;;
54167;SDS011;68429;50.958;3.592;2023-11-21T14:36:32;3.17;;;1.58;;
54167;SDS011;68429;50.958;3.592;2023-11-21T14:38:58;3.15;;;1.60;;
54167;SDS011;68429;50.958;3.592;2023-11-21T14:41:24;3.70;;;2.03;;
54167;SDS011;68429;50.958;3.592;2023-11-21T14:43:53;5.60;;;2.22;;
54167;SDS011;68429;50.958;3.592;2023-11-21T14:46:20;5.50;;;2.05;;
54167;SDS011;68429;50.958;3.592;2023-11-21T14:48:46;5.38;;;2.08;;